createdAt,value
2022-09-14T00:05:09.651Z,4.10
2022-09-14T00:10:47.662Z,6.80
2022-09-14T00:16:09.522Z,4.20
2022-09-14T00:21:51.428Z,5.10
2022-09-14T00:26:59.774Z,4.15
2022-09-14T00:32:12.152Z,1.02
2022-09-14T00:37:49.847Z,3.75
2022-09-14T00:43:14.278Z,1.73
2022-09-14T00:48:24.674Z,1.00
2022-09-14T00:53:52.830Z,3.30
2022-09-14T00:59:04.090Z,4.70
2022-09-14T01:04:13.417Z,5.72
2022-09-14T01:09:46.421Z,2.13
2022-09-14T01:15:07.575Z,6.05
2022-09-14T01:20:40.990Z,1.83
2022-09-14T01:26:21.632Z,3.88
2022-09-14T01:31:40.971Z,5.57
2022-09-14T01:37:09.975Z,3.50
2022-09-14T01:42:29.377Z,4.00
2022-09-14T01:48:17.886Z,4.25
2022-09-14T01:59:27.331Z,4.75
2022-09-14T02:04:49.250Z,5.45
2022-09-14T02:15:50.837Z,2.63
2022-09-14T02:21:32.495Z,3.53
2022-09-14T02:26:38.467Z,6.40
2022-09-14T02:31:59.501Z,4.93
2022-09-14T02:37:28.578Z,8.23
2022-09-14T02:42:55.712Z,3.65
2022-09-14T02:48:21.347Z,7.78
2022-09-14T02:54:08.842Z,2.58
2022-09-14T02:59:37.295Z,4.70
2022-09-14T03:05:00.069Z,6.35
2022-09-14T03:10:18.734Z,3.35
2022-09-14T03:15:32.666Z,1.30
2022-09-14T03:20:59.769Z,2.08
2022-09-14T03:26:40.949Z,9.23
2022-09-14T03:32:13.685Z,4.35
2022-09-14T03:37:25.912Z,1.80
2022-09-14T03:43:03.310Z,2.75
2022-09-14T03:48:21.936Z,2.28
2022-09-14T03:53:43.846Z,1.98
2022-09-14T03:59:02.111Z,7.38
2022-09-14T04:04:24.621Z,2.53
2022-09-14T04:09:51.635Z,2.40
2022-09-14T04:15:22.993Z,4.35
2022-09-14T04:20:43.698Z,2.00
2022-09-14T04:26:37.081Z,4.15
2022-09-14T04:31:55.450Z,5.20
2022-09-14T04:37:28.954Z,4.57
2022-09-14T04:43:05.314Z,6.53
2022-09-14T04:48:24.045Z,6.20
2022-09-14T04:53:40.798Z,2.83
2022-09-14T04:58:55.154Z,4.22
2022-09-14T05:04:23.669Z,5.95
2022-09-14T05:09:56.431Z,1.35
2022-09-14T05:15:14.773Z,3.70
2022-09-14T05:20:30.471Z,1.98
2022-09-14T05:25:44.348Z,1.38
2022-09-14T05:31:11.122Z,3.08
2022-09-14T05:36:36.950Z,4.57
2022-09-14T05:41:40.968Z,5.22
2022-09-14T05:46:44.779Z,8.70
2022-09-14T05:51:50.023Z,2.65
2022-09-14T05:56:53.860Z,2.05
2022-09-14T06:01:57.771Z,6.18
2022-09-14T06:07:17.861Z,5.93
2022-09-14T06:12:22.249Z,7.20
2022-09-14T06:17:25.972Z,3.90
2022-09-14T06:22:32.683Z,7.10
2022-09-14T06:27:36.441Z,2.33
2022-09-14T06:32:40.139Z,2.03
2022-09-14T06:37:45.190Z,5.07
2022-09-14T06:42:49.589Z,3.90
2022-09-14T06:47:53.295Z,8.75
2022-09-14T06:52:58.761Z,6.85
2022-09-14T06:58:03.051Z,4.38
2022-09-14T07:03:06.801Z,5.45
2022-09-14T07:08:12.370Z,4.30
2022-09-14T07:13:16.240Z,4.15
2022-09-14T07:18:20.121Z,7.72
2022-09-14T07:23:25.245Z,6.40
2022-09-14T07:28:29.610Z,7.88
2022-09-14T07:33:33.763Z,5.10
2022-09-14T07:38:52.017Z,2.38
2022-09-14T07:44:00.360Z,3.58
2022-09-14T07:49:04.956Z,6.63
2022-09-14T07:54:14.870Z,5.30
2022-09-14T07:59:36.571Z,3.92
2022-09-14T08:04:40.985Z,6.82
2022-09-14T08:09:46.887Z,3.95
2022-09-14T08:14:51.267Z,3.30
2022-09-14T08:19:57.643Z,5.15
2022-09-14T08:25:02.919Z,7.13
2022-09-14T08:30:07.643Z,3.92
2022-09-14T08:35:11.251Z,4.80
2022-09-14T08:40:18.084Z,9.82
2022-09-14T08:50:26.514Z,5.38
2022-09-14T08:55:38.539Z,9.73
2022-09-14T09:00:46.642Z,7.70
2022-09-14T09:05:54.227Z,3.58
2022-09-14T09:11:01.697Z,5.28
2022-09-14T09:16:09.913Z,5.40
2022-09-14T09:21:17.878Z,10.05
2022-09-14T09:26:28.812Z,8.85
2022-09-14T09:31:36.211Z,5.35
2022-09-14T09:37:20.507Z,8.43
2022-09-14T09:42:27.039Z,5.70
2022-09-14T09:47:33.566Z,6.05
2022-09-14T09:52:37.201Z,5.47
2022-09-14T09:57:42.279Z,3.53
2022-09-14T10:02:46.001Z,7.13
2022-09-14T10:07:59.232Z,4.75
2022-09-14T10:13:06.841Z,4.72
2022-09-14T10:18:17.948Z,3.45
2022-09-14T10:23:26.776Z,6.32
2022-09-14T10:28:34.605Z,6.05
2022-09-14T10:33:38.344Z,5.75
2022-09-14T10:38:46.929Z,6.63
2022-09-14T10:44:19.505Z,10.10
2022-09-14T10:49:37.976Z,7.68
2022-09-14T10:55:05.472Z,7.10
2022-09-14T11:00:14.790Z,4.55
2022-09-14T11:05:24.858Z,6.13
2022-09-14T11:10:35.844Z,4.43
2022-09-14T11:15:48.446Z,8.07
2022-09-14T11:21:06.706Z,10.43
2022-09-14T11:26:14.581Z,5.35
2022-09-14T11:31:24.239Z,5.22
2022-09-14T11:36:31.571Z,5.18
2022-09-14T11:41:40.477Z,4.72
2022-09-14T11:46:50.785Z,3.63
2022-09-14T11:51:59.152Z,3.40
2022-09-14T11:57:04.886Z,3.88
2022-09-14T12:02:54.406Z,2.63
2022-09-14T12:08:05.794Z,4.25
2022-09-14T12:13:27.494Z,2.55
2022-09-14T12:18:31.939Z,3.17
2022-09-14T12:23:51.707Z,1.15
2022-09-14T12:28:57.748Z,1.10
2022-09-14T12:34:27.078Z,0.93
2022-09-14T12:39:33.480Z,0.82
2022-09-14T12:44:40.043Z,3.55
2022-09-14T12:49:43.708Z,1.25
2022-09-14T12:55:07.543Z,0.55
2022-09-14T13:00:15.294Z,3.75
2022-09-14T13:05:23.697Z,3.47
2022-09-14T13:10:34.383Z,4.30
2022-09-14T13:15:45.899Z,5.03
2022-09-14T13:20:51.896Z,2.28
2022-09-14T13:25:57.585Z,3.03
2022-09-14T13:31:03.513Z,3.97
2022-09-14T13:36:08.542Z,3.58
2022-09-14T13:41:16.357Z,2.63
2022-09-14T13:46:20.777Z,5.78
2022-09-14T13:51:27.070Z,7.38
2022-09-14T13:56:34.154Z,6.40
2022-09-14T14:01:40.291Z,4.65
2022-09-14T14:06:46.029Z,3.43
2022-09-14T14:11:55.277Z,3.78
2022-09-14T14:17:36.819Z,3.95
2022-09-14T14:22:41.466Z,7.28
2022-09-14T14:27:48.583Z,1.77
2022-09-14T14:32:53.001Z,1.33
2022-09-14T14:37:57.447Z,1.80
2022-09-14T14:43:04.246Z,5.47
2022-09-14T14:48:10.698Z,3.25
2022-09-14T14:53:14.425Z,5.07
2022-09-14T14:58:21.662Z,6.72
2022-09-14T15:03:25.305Z,5.30
2022-09-14T15:08:28.979Z,2.28
2022-09-14T15:13:34.051Z,5.97
2022-09-14T15:18:37.714Z,3.13
2022-09-14T15:23:41.650Z,2.42
2022-09-14T15:28:48.671Z,5.25
2022-09-14T15:38:55.728Z,6.85
2022-09-14T15:44:01.110Z,6.35
2022-09-14T15:49:07.162Z,6.20
2022-09-14T15:54:10.921Z,3.97
2022-09-14T15:59:16.031Z,7.97
2022-09-14T16:04:20.286Z,4.35
2022-09-14T16:09:23.915Z,3.78
2022-09-14T16:14:29.072Z,11.50
2022-09-14T16:19:33.020Z,6.35
2022-09-14T16:24:36.713Z,5.38
2022-09-14T16:29:42.029Z,8.35
2022-09-14T16:34:45.742Z,8.32
2022-09-14T16:39:49.433Z,16.13
2022-09-14T16:44:54.549Z,6.95
2022-09-14T16:49:58.273Z,5.78
2022-09-14T16:55:01.908Z,7.45
2022-09-14T17:00:08.623Z,8.77
2022-09-14T17:05:12.319Z,10.07
2022-09-14T17:10:16.076Z,6.40
2022-09-14T17:15:21.353Z,7.28
2022-09-14T17:20:25.386Z,7.30
2022-09-14T17:25:29.090Z,3.78
2022-09-14T17:30:39.976Z,6.50
2022-09-14T17:35:48.180Z,6.15
2022-09-14T17:40:52.099Z,9.07
2022-09-14T17:45:59.012Z,7.75
2022-09-14T17:56:11.008Z,6.07
2022-09-14T18:01:18.866Z,7.47
2022-09-14T18:06:24.166Z,6.35
2022-09-14T18:11:28.424Z,3.90
2022-09-14T18:16:34.368Z,6.30
2022-09-14T18:21:40.366Z,11.15
2022-09-14T18:26:46.224Z,4.57
2022-09-14T18:31:51.570Z,3.28
2022-09-14T18:36:55.330Z,7.32
2022-09-14T18:42:00.043Z,4.32
2022-09-14T18:47:05.537Z,7.43
2022-09-14T18:52:09.239Z,4.80
2022-09-14T18:57:13.201Z,7.10
2022-09-14T19:02:18.219Z,4.25
2022-09-14T19:07:21.973Z,6.70
2022-09-14T19:12:25.812Z,8.98
2022-09-14T19:17:31.202Z,9.45
2022-09-14T19:22:35.357Z,5.90
2022-09-14T19:27:39.167Z,7.03
2022-09-14T19:32:44.178Z,7.07
2022-09-14T19:37:47.821Z,7.97
2022-09-14T19:42:51.908Z,5.53
2022-09-14T19:47:57.072Z,7.80
2022-09-14T19:53:04.446Z,9.63
2022-09-14T19:58:08.380Z,11.95
2022-09-14T20:03:13.473Z,8.48
2022-09-14T20:08:17.118Z,8.95
2022-09-14T20:13:20.939Z,8.38
2022-09-14T20:18:26.057Z,8.10
2022-09-14T20:23:29.698Z,8.00
2022-09-14T20:28:34.243Z,9.82
2022-09-14T20:33:43.105Z,8.07
2022-09-14T20:38:54.483Z,10.65
2022-09-14T20:43:58.148Z,9.88
2022-09-14T20:49:06.428Z,9.32
2022-09-14T20:54:12.595Z,11.73
2022-09-14T20:59:18.681Z,10.30
2022-09-14T21:04:27.307Z,7.83
2022-09-14T21:09:32.009Z,8.05
2022-09-14T21:14:35.880Z,11.60
2022-09-14T21:19:41.223Z,11.32
2022-09-14T21:24:44.948Z,13.10
2022-09-14T21:29:50.166Z,10.27
2022-09-14T21:34:55.437Z,8.13
2022-09-14T21:39:59.309Z,9.20
2022-09-14T21:45:03.253Z,9.85
2022-09-14T21:50:12.305Z,10.55
2022-09-14T21:55:19.406Z,10.57
2022-09-14T22:05:32.570Z,11.80
2022-09-14T22:10:36.608Z,11.60
2022-09-14T22:15:40.359Z,9.77
2022-09-14T22:20:45.464Z,9.65
2022-09-14T22:25:49.151Z,8.95
2022-09-14T22:30:54.637Z,10.23
2022-09-14T22:36:04.266Z,10.77
2022-09-14T22:41:10.493Z,9.32
2022-09-14T22:46:14.965Z,9.77
2022-09-14T22:51:29.144Z,9.88
2022-09-14T22:56:35.412Z,9.95
2022-09-14T23:01:41.322Z,10.47
2022-09-14T23:06:48.362Z,11.00
2022-09-14T23:16:56.012Z,15.40
2022-09-14T23:22:02.998Z,12.00
2022-09-14T23:32:10.269Z,10.32
2022-09-14T23:37:15.428Z,8.43
2022-09-14T23:42:19.075Z,10.85
2022-09-14T23:47:22.786Z,12.30
2022-09-14T23:52:27.890Z,10.43
2022-09-14T23:57:31.988Z,14.07
